To NAV CANADA Home Page Login to a new session Search on AWWS site Feedback and Comments Disclaimer Vers la page française équivalente Tips FAQ What's new on the site To the Forecasts and Observations / NOTAM section To "File a Flight Plan" website Publications and other links Update of the User's profile FIC Telephone Numbers My Weather Data Folder Route Weather Data Regional Weather Data Local Weather Data To the Forecasts and Observations / NOTAM section
Request Generated 10/18/2017 at 03:52:12 UTC . Weather information available at that time is displayed.

METAR/TAF

MONTREAL INTL (MIRABEL)/QC    

METAR CYMX 180300Z 23005KT 25SM SCT170 BKN220 11/07 A3000 RMK AC3CI3
SLP164=
METAR CYMX 180200Z 22008G15KT 25SM SCT150 BKN220 12/07 A3000 RMK
AC4CI3 SLP163=
METAR CYMX 180100Z 22011G17KT 25SM SCT180 BKN210 13/07 A2999 RMK
AC4CI3 SLP162=

TAF CYMX 172341Z 1800/1824 22008KT P6SM FEW050 SCT120 TEMPO 1800/1802
BKN050 BKN120
FM180200 24005KT P6SM FEW070 FEW140
FM180900 VRB03KT P6SM SKC PROB30 1809/1812 1SM BR
BECMG 1815/1817 21008KT
RMK NXT FCST BY 180600Z=
Your time UTC time
Weather data provided by Environment Canada and NAV CANADA